sensor_id;sensor_type;location;lat;lon;timestamp;temperature;humidity
45066;DHT22;30830;53.704;10.004;2023-07-08T00:01:16;16.40;99.90
45066;DHT22;30830;53.704;10.004;2023-07-08T00:03:42;16.40;99.90
45066;DHT22;30830;53.704;10.004;2023-07-08T00:06:16;16.30;99.90
45066;DHT22;30830;53.704;10.004;2023-07-08T00:08:42;16.40;99.90
45066;DHT22;30830;53.704;10.004;2023-07-08T00:11:12;16.30;99.90
45066;DHT22;30830;53.704;10.004;2023-07-08T00:13:38;16.30;99.90
45066;DHT22;30830;53.704;10.004;2023-07-08T00:16:07;16.30;99.90
45066;DHT22;30830;53.704;10.004;2023-07-08T00:18:33;16.20;99.90
45066;DHT22;30830;53.704;10.004;2023-07-08T00:20:59;16.20;99.90
45066;DHT22;30830;53.704;10.004;2023-07-08T00:23:25;16.10;99.90
45066;DHT22;30830;53.704;10.004;2023-07-08T00:25:50;16.00;99.90
45066;DHT22;30830;53.704;10.004;2023-07-08T00:28:18;16.00;99.90
45066;DHT22;30830;53.704;10.004;2023-07-08T00:30:46;16.00;99.90
45066;DHT22;30830;53.704;10.004;2023-07-08T00:33:12;15.90;99.90
45066;DHT22;30830;53.704;10.004;2023-07-08T00:35:40;15.90;99.90
45066;DHT22;30830;53.704;10.004;2023-07-08T00:38:15;15.90;99.90
45066;DHT22;30830;53.704;10.004;2023-07-08T00:40:51;15.80;99.90
45066;DHT22;30830;53.704;10.004;2023-07-08T00:43:22;15.80;99.90
45066;DHT22;30830;53.704;10.004;2023-07-08T00:45:54;15.80;99.90
45066;DHT22;30830;53.704;10.004;2023-07-08T00:48:30;15.80;99.90
45066;DHT22;30830;53.704;10.004;2023-07-08T00:50:57;15.70;99.90
45066;DHT22;30830;53.704;10.004;2023-07-08T00:53:27;15.70;99.90
45066;DHT22;30830;53.704;10.004;2023-07-08T00:56:17;15.70;99.90
45066;DHT22;30830;53.704;10.004;2023-07-08T00:58:56;15.60;99.90
45066;DHT22;30830;53.704;10.004;2023-07-08T01:01:24;15.60;99.90
45066;DHT22;30830;53.704;10.004;2023-07-08T01:03:55;15.60;99.90
45066;DHT22;30830;53.704;10.004;2023-07-08T01:06:23;15.60;99.90
45066;DHT22;30830;53.704;10.004;2023-07-08T01:08:58;15.60;99.90
45066;DHT22;30830;53.704;10.004;2023-07-08T01:11:25;15.60;99.90
45066;DHT22;30830;53.704;10.004;2023-07-08T01:13:51;15.50;99.90
45066;DHT22;30830;53.704;10.004;2023-07-08T01:16:18;15.40;99.90
45066;DHT22;30830;53.704;10.004;2023-07-08T01:18:44;15.40;99.90
45066;DHT22;30830;53.704;10.004;2023-07-08T01:21:38;15.40;99.90
45066;DHT22;30830;53.704;10.004;2023-07-08T01:24:07;15.40;99.90
45066;DHT22;30830;53.704;10.004;2023-07-08T01:26:37;15.30;99.90
45066;DHT22;30830;53.704;10.004;2023-07-08T01:29:04;15.30;99.90
45066;DHT22;30830;53.704;10.004;2023-07-08T01:31:30;15.20;99.90
45066;DHT22;30830;53.704;10.004;2023-07-08T01:33:56;15.20;99.90
45066;DHT22;30830;53.704;10.004;2023-07-08T01:36:21;15.20;99.90
45066;DHT22;30830;53.704;10.004;2023-07-08T01:38:47;15.20;99.90
45066;DHT22;30830;53.704;10.004;2023-07-08T01:41:15;15.20;99.90
45066;DHT22;30830;53.704;10.004;2023-07-08T01:43:42;15.20;99.90
45066;DHT22;30830;53.704;10.004;2023-07-08T01:46:17;15.10;99.90
45066;DHT22;30830;53.704;10.004;2023-07-08T01:48:46;15.10;99.90
45066;DHT22;30830;53.704;10.004;2023-07-08T01:51:13;15.10;99.90
45066;DHT22;30830;53.704;10.004;2023-07-08T01:53:41;15.20;99.90
45066;DHT22;30830;53.704;10.004;2023-07-08T01:56:08;15.20;99.90
45066;DHT22;30830;53.704;10.004;2023-07-08T01:58:34;15.20;99.90
45066;DHT22;30830;53.704;10.004;2023-07-08T02:01:00;15.20;99.90
45066;DHT22;30830;53.704;10.004;2023-07-08T02:03:26;15.10;99.90
45066;DHT22;30830;53.704;10.004;2023-07-08T02:05:52;15.20;99.90
45066;DHT22;30830;53.704;10.004;2023-07-08T02:08:17;15.20;99.90
45066;DHT22;30830;53.704;10.004;2023-07-08T02:10:44;15.20;99.90
45066;DHT22;30830;53.704;10.004;2023-07-08T02:13:10;15.10;99.90
45066;DHT22;30830;53.704;10.004;2023-07-08T02:15:35;15.10;99.90
45066;DHT22;30830;53.704;10.004;2023-07-08T02:18:01;15.10;99.90
45066;DHT22;30830;53.704;10.004;2023-07-08T02:20:26;15.10;99.90
45066;DHT22;30830;53.704;10.004;2023-07-08T02:22:52;15.10;99.90
45066;DHT22;30830;53.704;10.004;2023-07-08T02:25:18;15.00;99.90
45066;DHT22;30830;53.704;10.004;2023-07-08T02:27:43;15.00;99.90
45066;DHT22;30830;53.704;10.004;2023-07-08T02:30:09;14.90;99.90
45066;DHT22;30830;53.704;10.004;2023-07-08T02:32:35;14.90;99.90
45066;DHT22;30830;53.704;10.004;2023-07-08T02:35:05;14.90;99.90
45066;DHT22;30830;53.704;10.004;2023-07-08T02:37:30;14.90;99.90
45066;DHT22;30830;53.704;10.004;2023-07-08T02:39:57;14.90;99.90
45066;DHT22;30830;53.704;10.004;2023-07-08T02:42:23;14.90;99.90
45066;DHT22;30830;53.704;10.004;2023-07-08T02:44:48;14.90;99.90
45066;DHT22;30830;53.704;10.004;2023-07-08T02:47:14;14.90;99.90
45066;DHT22;30830;53.704;10.004;2023-07-08T02:49:39;14.90;99.90
45066;DHT22;30830;53.704;10.004;2023-07-08T02:52:05;14.80;99.90
45066;DHT22;30830;53.704;10.004;2023-07-08T02:54:31;14.80;99.90
45066;DHT22;30830;53.704;10.004;2023-07-08T02:56:56;14.80;99.90
45066;DHT22;30830;53.704;10.004;2023-07-08T02:59:22;14.80;99.90
45066;DHT22;30830;53.704;10.004;2023-07-08T03:01:47;14.80;99.90
45066;DHT22;30830;53.704;10.004;2023-07-08T03:04:13;14.80;99.90
45066;DHT22;30830;53.704;10.004;2023-07-08T03:06:43;14.80;99.90
45066;DHT22;30830;53.704;10.004;2023-07-08T03:09:09;14.80;99.90
45066;DHT22;30830;53.704;10.004;2023-07-08T03:11:36;14.80;99.90
45066;DHT22;30830;53.704;10.004;2023-07-08T03:14:02;14.80;99.90
45066;DHT22;30830;53.704;10.004;2023-07-08T03:16:27;14.80;99.90
45066;DHT22;30830;53.704;10.004;2023-07-08T03:18:53;14.80;99.90
45066;DHT22;30830;53.704;10.004;2023-07-08T03:21:19;14.80;99.90
45066;DHT22;30830;53.704;10.004;2023-07-08T03:23:45;14.80;99.90
45066;DHT22;30830;53.704;10.004;2023-07-08T03:26:17;14.80;99.90
45066;DHT22;30830;53.704;10.004;2023-07-08T03:28:44;14.80;99.90
45066;DHT22;30830;53.704;10.004;2023-07-08T03:31:09;14.80;99.90
45066;DHT22;30830;53.704;10.004;2023-07-08T03:33:35;14.80;99.90
45066;DHT22;30830;53.704;10.004;2023-07-08T03:36:02;14.80;99.90
45066;DHT22;30830;53.704;10.004;2023-07-08T03:38:28;14.80;99.90
45066;DHT22;30830;53.704;10.004;2023-07-08T03:40:54;14.80;99.90
45066;DHT22;30830;53.704;10.004;2023-07-08T03:43:19;14.80;99.90
45066;DHT22;30830;53.704;10.004;2023-07-08T03:45:45;14.80;99.90
45066;DHT22;30830;53.704;10.004;2023-07-08T03:48:11;14.80;99.90
45066;DHT22;30830;53.704;10.004;2023-07-08T03:50:37;14.80;99.90
45066;DHT22;30830;53.704;10.004;2023-07-08T03:53:03;14.70;99.90
45066;DHT22;30830;53.704;10.004;2023-07-08T03:55:29;14.80;99.90
45066;DHT22;30830;53.704;10.004;2023-07-08T03:57:54;14.70;99.90
45066;DHT22;30830;53.704;10.004;2023-07-08T04:00:20;14.70;99.90
45066;DHT22;30830;53.704;10.004;2023-07-08T04:02:48;14.70;99.90
45066;DHT22;30830;53.704;10.004;2023-07-08T04:05:20;14.80;99.90
45066;DHT22;30830;53.704;10.004;2023-07-08T04:07:46;14.80;99.90
45066;DHT22;30830;53.704;10.004;2023-07-08T04:10:12;14.80;99.90
45066;DHT22;30830;53.704;10.004;2023-07-08T04:12:38;14.80;99.90
45066;DHT22;30830;53.704;10.004;2023-07-08T04:15:04;14.80;99.90
45066;DHT22;30830;53.704;10.004;2023-07-08T04:17:30;14.80;99.90
45066;DHT22;30830;53.704;10.004;2023-07-08T04:19:56;14.80;99.90
45066;DHT22;30830;53.704;10.004;2023-07-08T04:22:22;14.90;99.90
45066;DHT22;30830;53.704;10.004;2023-07-08T04:24:48;14.90;99.90
45066;DHT22;30830;53.704;10.004;2023-07-08T04:27:15;14.90;99.90
45066;DHT22;30830;53.704;10.004;2023-07-08T04:29:42;14.90;99.90
45066;DHT22;30830;53.704;10.004;2023-07-08T04:32:07;14.90;99.90
45066;DHT22;30830;53.704;10.004;2023-07-08T04:34:33;15.00;99.90
45066;DHT22;30830;53.704;10.004;2023-07-08T04:36:59;15.00;99.90
45066;DHT22;30830;53.704;10.004;2023-07-08T04:39:24;15.00;99.90
45066;DHT22;30830;53.704;10.004;2023-07-08T04:41:50;15.10;99.90
45066;DHT22;30830;53.704;10.004;2023-07-08T04:44:16;15.10;99.90
45066;DHT22;30830;53.704;10.004;2023-07-08T04:46:56;15.10;99.90
45066;DHT22;30830;53.704;10.004;2023-07-08T04:49:23;15.20;99.90
45066;DHT22;30830;53.704;10.004;2023-07-08T04:51:49;15.20;99.90
45066;DHT22;30830;53.704;10.004;2023-07-08T04:54:15;15.30;99.90
45066;DHT22;30830;53.704;10.004;2023-07-08T04:56:43;15.30;99.90
45066;DHT22;30830;53.704;10.004;2023-07-08T04:59:15;15.40;99.90
45066;DHT22;30830;53.704;10.004;2023-07-08T05:01:40;15.50;99.90
45066;DHT22;30830;53.704;10.004;2023-07-08T05:04:07;15.50;99.90
45066;DHT22;30830;53.704;10.004;2023-07-08T05:06:34;15.60;99.90
45066;DHT22;30830;53.704;10.004;2023-07-08T05:09:01;15.60;99.90
45066;DHT22;30830;53.704;10.004;2023-07-08T05:11:26;15.70;99.90
45066;DHT22;30830;53.704;10.004;2023-07-08T05:13:52;15.80;99.90
45066;DHT22;30830;53.704;10.004;2023-07-08T05:16:18;15.80;99.90
45066;DHT22;30830;53.704;10.004;2023-07-08T05:18:44;15.90;99.90
45066;DHT22;30830;53.704;10.004;2023-07-08T05:21:11;16.00;99.90
45066;DHT22;30830;53.704;10.004;2023-07-08T05:23:37;16.00;99.90
45066;DHT22;30830;53.704;10.004;2023-07-08T05:26:04;16.10;99.90
45066;DHT22;30830;53.704;10.004;2023-07-08T05:28:30;16.20;99.90
45066;DHT22;30830;53.704;10.004;2023-07-08T05:30:57;16.30;99.90
45066;DHT22;30830;53.704;10.004;2023-07-08T05:33:23;16.40;99.90
45066;DHT22;30830;53.704;10.004;2023-07-08T05:35:50;16.50;99.90
45066;DHT22;30830;53.704;10.004;2023-07-08T05:38:15;16.60;99.90
45066;DHT22;30830;53.704;10.004;2023-07-08T05:40:41;16.70;99.90
45066;DHT22;30830;53.704;10.004;2023-07-08T05:43:07;16.80;99.90
45066;DHT22;30830;53.704;10.004;2023-07-08T05:45:35;16.90;99.90
45066;DHT22;30830;53.704;10.004;2023-07-08T05:48:01;17.00;99.90
45066;DHT22;30830;53.704;10.004;2023-07-08T05:50:27;17.10;99.90
45066;DHT22;30830;53.704;10.004;2023-07-08T05:52:53;17.30;99.90
45066;DHT22;30830;53.704;10.004;2023-07-08T05:55:18;17.40;99.90
45066;DHT22;30830;53.704;10.004;2023-07-08T05:57:44;17.50;99.90
45066;DHT22;30830;53.704;10.004;2023-07-08T06:00:10;17.70;99.90
45066;DHT22;30830;53.704;10.004;2023-07-08T06:02:36;17.90;99.90
45066;DHT22;30830;53.704;10.004;2023-07-08T06:05:02;18.00;99.90
45066;DHT22;30830;53.704;10.004;2023-07-08T06:07:28;18.10;99.90
45066;DHT22;30830;53.704;10.004;2023-07-08T06:09:53;18.30;99.90
45066;DHT22;30830;53.704;10.004;2023-07-08T06:12:21;18.40;99.90
45066;DHT22;30830;53.704;10.004;2023-07-08T06:14:47;18.60;99.90
45066;DHT22;30830;53.704;10.004;2023-07-08T06:17:12;18.70;99.90
45066;DHT22;30830;53.704;10.004;2023-07-08T06:19:38;18.90;99.90
45066;DHT22;30830;53.704;10.004;2023-07-08T06:22:04;19.10;99.90
45066;DHT22;30830;53.704;10.004;2023-07-08T06:24:29;19.20;99.90
45066;DHT22;30830;53.704;10.004;2023-07-08T06:26:55;19.40;99.90
45066;DHT22;30830;53.704;10.004;2023-07-08T06:29:21;19.50;99.90
45066;DHT22;30830;53.704;10.004;2023-07-08T06:31:46;19.70;99.90
45066;DHT22;30830;53.704;10.004;2023-07-08T06:34:12;19.80;99.90
45066;DHT22;30830;53.704;10.004;2023-07-08T06:36:37;20.00;99.90
45066;DHT22;30830;53.704;10.004;2023-07-08T06:39:03;20.10;99.90
45066;DHT22;30830;53.704;10.004;2023-07-08T06:41:32;20.20;99.90
45066;DHT22;30830;53.704;10.004;2023-07-08T06:43:58;20.40;99.90
45066;DHT22;30830;53.704;10.004;2023-07-08T06:46:24;20.50;99.90
45066;DHT22;30830;53.704;10.004;2023-07-08T06:48:49;20.70;99.90
45066;DHT22;30830;53.704;10.004;2023-07-08T06:51:15;20.80;99.90
45066;DHT22;30830;53.704;10.004;2023-07-08T06:53:41;21.00;99.90
45066;DHT22;30830;53.704;10.004;2023-07-08T06:56:06;21.20;99.90
45066;DHT22;30830;53.704;10.004;2023-07-08T06:58:32;21.30;99.90
45066;DHT22;30830;53.704;10.004;2023-07-08T07:00:58;21.50;99.90
45066;DHT22;30830;53.704;10.004;2023-07-08T07:03:23;21.60;99.90
45066;DHT22;30830;53.704;10.004;2023-07-08T07:05:49;21.70;99.90
45066;DHT22;30830;53.704;10.004;2023-07-08T07:08:14;21.90;99.90
45066;DHT22;30830;53.704;10.004;2023-07-08T07:10:40;22.00;99.90
45066;DHT22;30830;53.704;10.004;2023-07-08T07:13:05;22.10;99.80
45066;DHT22;30830;53.704;10.004;2023-07-08T07:15:31;22.30;99.60
45066;DHT22;30830;53.704;10.004;2023-07-08T07:17:57;22.40;99.60
45066;DHT22;30830;53.704;10.004;2023-07-08T07:20:25;22.50;99.40
45066;DHT22;30830;53.704;10.004;2023-07-08T07:22:51;22.70;99.60
45066;DHT22;30830;53.704;10.004;2023-07-08T07:25:17;22.80;99.90
45066;DHT22;30830;53.704;10.004;2023-07-08T07:27:43;23.00;99.50
45066;DHT22;30830;53.704;10.004;2023-07-08T07:30:09;23.10;99.90
45066;DHT22;30830;53.704;10.004;2023-07-08T07:32:38;23.20;97.90
45066;DHT22;30830;53.704;10.004;2023-07-08T07:35:04;23.30;98.00
45066;DHT22;30830;53.704;10.004;2023-07-08T07:37:30;23.50;98.20
45066;DHT22;30830;53.704;10.004;2023-07-08T07:39:55;23.60;97.80
45066;DHT22;30830;53.704;10.004;2023-07-08T07:42:21;23.70;97.00
45066;DHT22;30830;53.704;10.004;2023-07-08T07:44:47;23.80;97.00
45066;DHT22;30830;53.704;10.004;2023-07-08T07:47:12;24.00;97.50
45066;DHT22;30830;53.704;10.004;2023-07-08T07:49:38;24.10;96.60
45066;DHT22;30830;53.704;10.004;2023-07-08T07:52:04;24.20;96.70
45066;DHT22;30830;53.704;10.004;2023-07-08T07:54:30;24.30;96.20
45066;DHT22;30830;53.704;10.004;2023-07-08T07:56:56;24.50;96.00
45066;DHT22;30830;53.704;10.004;2023-07-08T07:59:22;24.60;95.50
45066;DHT22;30830;53.704;10.004;2023-07-08T08:01:47;24.80;95.40
45066;DHT22;30830;53.704;10.004;2023-07-08T08:04:13;24.90;95.40
45066;DHT22;30830;53.704;10.004;2023-07-08T08:06:39;25.00;94.80
45066;DHT22;30830;53.704;10.004;2023-07-08T08:09:06;25.10;95.20
45066;DHT22;30830;53.704;10.004;2023-07-08T08:11:32;25.10;94.20
45066;DHT22;30830;53.704;10.004;2023-07-08T08:13:57;25.30;95.30
45066;DHT22;30830;53.704;10.004;2023-07-08T08:16:23;25.40;94.70
45066;DHT22;30830;53.704;10.004;2023-07-08T08:18:49;25.60;95.20
45066;DHT22;30830;53.704;10.004;2023-07-08T08:21:15;25.70;93.40
45066;DHT22;30830;53.704;10.004;2023-07-08T08:23:40;25.80;93.60
45066;DHT22;30830;53.704;10.004;2023-07-08T08:26:06;26.00;93.80
45066;DHT22;30830;53.704;10.004;2023-07-08T08:28:31;26.10;94.10
45066;DHT22;30830;53.704;10.004;2023-07-08T08:30:57;26.30;95.10
45066;DHT22;30830;53.704;10.004;2023-07-08T08:33:23;26.30;93.40
45066;DHT22;30830;53.704;10.004;2023-07-08T08:35:48;26.40;92.40
45066;DHT22;30830;53.704;10.004;2023-07-08T08:38:14;26.30;91.70
45066;DHT22;30830;53.704;10.004;2023-07-08T08:40:41;26.10;91.70
45066;DHT22;30830;53.704;10.004;2023-07-08T08:43:12;26.10;92.70
45066;DHT22;30830;53.704;10.004;2023-07-08T08:46:00;26.30;92.80
45066;DHT22;30830;53.704;10.004;2023-07-08T08:48:29;26.50;92.80
45066;DHT22;30830;53.704;10.004;2023-07-08T08:51:00;26.70;92.60
45066;DHT22;30830;53.704;10.004;2023-07-08T08:53:27;26.80;91.70
45066;DHT22;30830;53.704;10.004;2023-07-08T08:56:14;26.90;91.80
45066;DHT22;30830;53.704;10.004;2023-07-08T08:58:58;27.10;91.30
45066;DHT22;30830;53.704;10.004;2023-07-08T09:01:27;27.10;91.50
45066;DHT22;30830;53.704;10.004;2023-07-08T09:04:03;27.20;90.90
45066;DHT22;30830;53.704;10.004;2023-07-08T09:06:34;27.10;90.80
45066;DHT22;30830;53.704;10.004;2023-07-08T09:09:37;27.10;91.10
45066;DHT22;30830;53.704;10.004;2023-07-08T09:12:09;27.20;90.80
45066;DHT22;30830;53.704;10.004;2023-07-08T09:14:37;27.20;91.00
45066;DHT22;30830;53.704;10.004;2023-07-08T09:22:51;27.30;90.00
45066;DHT22;30830;53.704;10.004;2023-07-08T09:28:08;27.40;91.00
45066;DHT22;30830;53.704;10.004;2023-07-08T09:30:34;27.50;88.80
45066;DHT22;30830;53.704;10.004;2023-07-08T09:33:03;27.40;88.70
45066;DHT22;30830;53.704;10.004;2023-07-08T09:35:44;27.40;88.80
45066;DHT22;30830;53.704;10.004;2023-07-08T09:38:15;27.40;88.90
45066;DHT22;30830;53.704;10.004;2023-07-08T09:40:47;27.50;89.20
45066;DHT22;30830;53.704;10.004;2023-07-08T09:43:25;27.60;89.10
45066;DHT22;30830;53.704;10.004;2023-07-08T09:45:51;27.70;90.00
45066;DHT22;30830;53.704;10.004;2023-07-08T09:48:27;27.70;89.00
45066;DHT22;30830;53.704;10.004;2023-07-08T09:50:56;27.70;90.00
45066;DHT22;30830;53.704;10.004;2023-07-08T09:53:22;27.70;90.50
45066;DHT22;30830;53.704;10.004;2023-07-08T09:55:50;27.60;89.10
45066;DHT22;30830;53.704;10.004;2023-07-08T09:58:25;27.70;89.70
45066;DHT22;30830;53.704;10.004;2023-07-08T10:00:58;27.70;89.20
45066;DHT22;30830;53.704;10.004;2023-07-08T10:03:30;27.60;89.60
45066;DHT22;30830;53.704;10.004;2023-07-08T10:05:58;27.70;89.20
45066;DHT22;30830;53.704;10.004;2023-07-08T10:08:31;27.70;87.50
45066;DHT22;30830;53.704;10.004;2023-07-08T10:11:30;27.70;88.80
45066;DHT22;30830;53.704;10.004;2023-07-08T10:14:04;27.80;90.20
45066;DHT22;30830;53.704;10.004;2023-07-08T10:16:34;27.80;89.20
45066;DHT22;30830;53.704;10.004;2023-07-08T10:19:00;27.80;88.10
45066;DHT22;30830;53.704;10.004;2023-07-08T10:24:28;27.70;87.50
45066;DHT22;30830;53.704;10.004;2023-07-08T10:29:53;27.70;87.50
45066;DHT22;30830;53.704;10.004;2023-07-08T10:32:37;27.70;86.70
45066;DHT22;30830;53.704;10.004;2023-07-08T10:35:17;27.70;87.10
45066;DHT22;30830;53.704;10.004;2023-07-08T10:37:55;27.70;88.10
45066;DHT22;30830;53.704;10.004;2023-07-08T10:59:13;27.80;87.40
45066;DHT22;30830;53.704;10.004;2023-07-08T11:07:36;27.80;86.20
45066;DHT22;30830;53.704;10.004;2023-07-08T11:15:25;27.90;85.80
45066;DHT22;30830;53.704;10.004;2023-07-08T11:28:43;28.10;83.70
45066;DHT22;30830;53.704;10.004;2023-07-08T11:31:10;28.10;82.80
45066;DHT22;30830;53.704;10.004;2023-07-08T11:33:38;28.10;84.30
45066;DHT22;30830;53.704;10.004;2023-07-08T11:36:04;28.20;84.60
45066;DHT22;30830;53.704;10.004;2023-07-08T11:38:32;28.20;84.50
45066;DHT22;30830;53.704;10.004;2023-07-08T11:41:12;28.30;82.10
45066;DHT22;30830;53.704;10.004;2023-07-08T11:43:56;28.30;84.10
45066;DHT22;30830;53.704;10.004;2023-07-08T11:46:30;28.30;83.20
45066;DHT22;30830;53.704;10.004;2023-07-08T11:49:02;28.30;83.40
45066;DHT22;30830;53.704;10.004;2023-07-08T11:51:34;28.40;81.60
45066;DHT22;30830;53.704;10.004;2023-07-08T11:56:58;28.30;83.10
45066;DHT22;30830;53.704;10.004;2023-07-08T11:59:25;28.40;84.30
45066;DHT22;30830;53.704;10.004;2023-07-08T12:04:30;28.40;82.70
45066;DHT22;30830;53.704;10.004;2023-07-08T12:07:20;28.40;84.00
45066;DHT22;30830;53.704;10.004;2023-07-08T12:09:49;28.40;84.50
45066;DHT22;30830;53.704;10.004;2023-07-08T12:12:22;28.40;82.60
45066;DHT22;30830;53.704;10.004;2023-07-08T12:14:50;28.50;82.60
45066;DHT22;30830;53.704;10.004;2023-07-08T12:17:16;28.50;83.00
45066;DHT22;30830;53.704;10.004;2023-07-08T12:19:43;28.60;82.50
45066;DHT22;30830;53.704;10.004;2023-07-08T12:22:11;28.60;82.40
45066;DHT22;30830;53.704;10.004;2023-07-08T12:24:40;28.70;83.00
45066;DHT22;30830;53.704;10.004;2023-07-08T12:27:07;28.70;82.10
45066;DHT22;30830;53.704;10.004;2023-07-08T12:29:33;28.80;81.20
45066;DHT22;30830;53.704;10.004;2023-07-08T12:31:59;28.80;80.00
45066;DHT22;30830;53.704;10.004;2023-07-08T12:34:25;28.80;79.90
45066;DHT22;30830;53.704;10.004;2023-07-08T12:36:51;28.80;80.40
45066;DHT22;30830;53.704;10.004;2023-07-08T12:39:18;28.90;79.20
45066;DHT22;30830;53.704;10.004;2023-07-08T12:41:45;28.90;78.50
45066;DHT22;30830;53.704;10.004;2023-07-08T12:44:18;29.00;79.10
45066;DHT22;30830;53.704;10.004;2023-07-08T12:46:45;29.10;78.80
45066;DHT22;30830;53.704;10.004;2023-07-08T12:49:13;29.10;79.50
45066;DHT22;30830;53.704;10.004;2023-07-08T12:51:46;29.20;79.80
45066;DHT22;30830;53.704;10.004;2023-07-08T12:54:13;29.40;80.30
45066;DHT22;30830;53.704;10.004;2023-07-08T12:56:43;29.50;80.70
45066;DHT22;30830;53.704;10.004;2023-07-08T12:59:17;29.60;78.50
45066;DHT22;30830;53.704;10.004;2023-07-08T13:01:46;29.60;80.10
45066;DHT22;30830;53.704;10.004;2023-07-08T13:04:13;29.70;78.20
45066;DHT22;30830;53.704;10.004;2023-07-08T13:06:40;29.80;77.30
45066;DHT22;30830;53.704;10.004;2023-07-08T13:09:30;29.90;78.60
45066;DHT22;30830;53.704;10.004;2023-07-08T13:11:57;30.00;73.70
45066;DHT22;30830;53.704;10.004;2023-07-08T13:14:24;30.00;76.80
45066;DHT22;30830;53.704;10.004;2023-07-08T13:16:50;30.10;77.40
45066;DHT22;30830;53.704;10.004;2023-07-08T13:19:17;30.20;78.60
45066;DHT22;30830;53.704;10.004;2023-07-08T13:21:44;30.30;76.20
45066;DHT22;30830;53.704;10.004;2023-07-08T13:24:11;30.30;76.60
45066;DHT22;30830;53.704;10.004;2023-07-08T13:26:37;30.40;76.10
45066;DHT22;30830;53.704;10.004;2023-07-08T13:29:15;30.50;73.70
45066;DHT22;30830;53.704;10.004;2023-07-08T13:31:55;30.50;75.10
45066;DHT22;30830;53.704;10.004;2023-07-08T13:34:25;30.60;74.40
45066;DHT22;30830;53.704;10.004;2023-07-08T13:36:55;30.60;71.50
45066;DHT22;30830;53.704;10.004;2023-07-08T13:39:29;30.50;73.70
45066;DHT22;30830;53.704;10.004;2023-07-08T13:41:55;30.50;74.60
45066;DHT22;30830;53.704;10.004;2023-07-08T13:44:22;30.60;72.70
45066;DHT22;30830;53.704;10.004;2023-07-08T13:49:22;30.70;72.90
45066;DHT22;30830;53.704;10.004;2023-07-08T13:51:48;30.80;72.00
45066;DHT22;30830;53.704;10.004;2023-07-08T13:54:23;30.80;71.20
45066;DHT22;30830;53.704;10.004;2023-07-08T13:56:50;30.90;72.10
45066;DHT22;30830;53.704;10.004;2023-07-08T13:59:21;31.00;73.10
45066;DHT22;30830;53.704;10.004;2023-07-08T14:01:48;31.00;72.60
45066;DHT22;30830;53.704;10.004;2023-07-08T14:04:29;31.10;71.80
45066;DHT22;30830;53.704;10.004;2023-07-08T14:06:55;31.10;71.90
45066;DHT22;30830;53.704;10.004;2023-07-08T14:09:22;31.20;72.70
45066;DHT22;30830;53.704;10.004;2023-07-08T14:11:49;31.30;71.40
45066;DHT22;30830;53.704;10.004;2023-07-08T14:14:19;31.30;72.80
45066;DHT22;30830;53.704;10.004;2023-07-08T14:16:50;31.40;73.90
45066;DHT22;30830;53.704;10.004;2023-07-08T14:19:30;31.30;74.40
45066;DHT22;30830;53.704;10.004;2023-07-08T14:22:00;31.40;74.80
45066;DHT22;30830;53.704;10.004;2023-07-08T14:24:26;31.40;75.20
45066;DHT22;30830;53.704;10.004;2023-07-08T14:26:53;31.40;73.70
45066;DHT22;30830;53.704;10.004;2023-07-08T14:29:18;31.40;74.60
45066;DHT22;30830;53.704;10.004;2023-07-08T14:31:44;31.30;75.20
45066;DHT22;30830;53.704;10.004;2023-07-08T14:34:21;31.30;74.80
45066;DHT22;30830;53.704;10.004;2023-07-08T14:36:47;31.00;75.10
45066;DHT22;30830;53.704;10.004;2023-07-08T14:39:15;31.00;72.70
45066;DHT22;30830;53.704;10.004;2023-07-08T14:41:42;31.10;72.10
45066;DHT22;30830;53.704;10.004;2023-07-08T14:44:33;31.10;74.20
45066;DHT22;30830;53.704;10.004;2023-07-08T14:46:59;31.20;74.90
45066;DHT22;30830;53.704;10.004;2023-07-08T14:49:25;31.20;74.60
45066;DHT22;30830;53.704;10.004;2023-07-08T14:51:51;31.20;74.90
45066;DHT22;30830;53.704;10.004;2023-07-08T14:54:21;31.00;75.30
45066;DHT22;30830;53.704;10.004;2023-07-08T14:56:48;31.00;75.60
45066;DHT22;30830;53.704;10.004;2023-07-08T14:59:18;31.00;73.30
45066;DHT22;30830;53.704;10.004;2023-07-08T15:01:45;31.00;72.70
45066;DHT22;30830;53.704;10.004;2023-07-08T15:04:13;31.00;71.70
45066;DHT22;30830;53.704;10.004;2023-07-08T15:06:40;31.00;73.70
45066;DHT22;30830;53.704;10.004;2023-07-08T15:09:06;30.90;74.00
45066;DHT22;30830;53.704;10.004;2023-07-08T15:11:35;30.90;74.90
45066;DHT22;30830;53.704;10.004;2023-07-08T15:14:03;30.90;76.40
45066;DHT22;30830;53.704;10.004;2023-07-08T15:16:29;30.80;76.40
45066;DHT22;30830;53.704;10.004;2023-07-08T15:18:54;30.80;75.70
45066;DHT22;30830;53.704;10.004;2023-07-08T15:21:20;30.90;76.60
45066;DHT22;30830;53.704;10.004;2023-07-08T15:23:46;30.80;76.90
45066;DHT22;30830;53.704;10.004;2023-07-08T15:26:12;30.70;77.40
45066;DHT22;30830;53.704;10.004;2023-07-08T15:28:50;30.60;78.00
45066;DHT22;30830;53.704;10.004;2023-07-08T15:31:21;30.40;79.00
45066;DHT22;30830;53.704;10.004;2023-07-08T15:33:50;30.20;79.70
45066;DHT22;30830;53.704;10.004;2023-07-08T15:36:16;29.90;79.50
45066;DHT22;30830;53.704;10.004;2023-07-08T15:38:42;29.80;80.60
45066;DHT22;30830;53.704;10.004;2023-07-08T15:41:29;29.80;81.90
45066;DHT22;30830;53.704;10.004;2023-07-08T15:43:56;29.90;81.20
45066;DHT22;30830;53.704;10.004;2023-07-08T15:46:31;29.70;80.40
45066;DHT22;30830;53.704;10.004;2023-07-08T15:48:57;29.50;80.20
45066;DHT22;30830;53.704;10.004;2023-07-08T15:51:22;29.30;81.40
45066;DHT22;30830;53.704;10.004;2023-07-08T15:53:48;29.30;81.20
45066;DHT22;30830;53.704;10.004;2023-07-08T15:56:18;29.10;81.40
45066;DHT22;30830;53.704;10.004;2023-07-08T15:58:45;29.00;81.10
45066;DHT22;30830;53.704;10.004;2023-07-08T16:01:20;28.80;81.40
45066;DHT22;30830;53.704;10.004;2023-07-08T16:03:47;28.70;81.10
45066;DHT22;30830;53.704;10.004;2023-07-08T16:06:17;28.70;82.10
45066;DHT22;30830;53.704;10.004;2023-07-08T16:08:44;28.70;82.00
45066;DHT22;30830;53.704;10.004;2023-07-08T16:11:15;28.80;82.80
45066;DHT22;30830;53.704;10.004;2023-07-08T16:13:42;28.80;83.10
45066;DHT22;30830;53.704;10.004;2023-07-08T16:16:10;28.70;82.10
45066;DHT22;30830;53.704;10.004;2023-07-08T16:18:36;28.70;82.10
45066;DHT22;30830;53.704;10.004;2023-07-08T16:21:03;28.60;82.70
45066;DHT22;30830;53.704;10.004;2023-07-08T16:23:28;28.70;82.70
45066;DHT22;30830;53.704;10.004;2023-07-08T16:25:54;28.50;81.80